This is the latest recevied weather packets stored in our database for station/object N7WGJ. If no packets are shown the sender has not sent any weather packets the latest 10 day(s).
| Time | Temp. | Humidity | Pressure | Rain* | Wind** | Luminosity | Snow |
|---|---|---|---|---|---|---|---|
| 1787857899 | 20.56° C | 71% | 1018.4 hPa | 0 mm | - | - | - |
| 1787857317 | 20° C | 73% | 1018.3 hPa | 0 mm | - | - | - |
| 1787856684 | 19.44° C | 76% | 1018.3 hPa | 0 mm | - | - | - |
| 1787856087 | 18.89° C | 76% | 1018.4 hPa | 0 mm | - | - | - |
| 1787855489 | 19.44° C | 74% | 1018.5 hPa | 0 mm | - | - | - |
| 1787854894 | 19.44° C | 74% | 1018.4 hPa | 0 mm | - | - | - |
| 1787854294 | 19.44° C | 74% | 1018.3 hPa | 0 mm | - | - | - |
| 1787853716 | 19.44° C | 74% | 1018.1 hPa | 0 mm | - | - | - |
| 1787853086 | 19.44° C | 75% | 1018.1 hPa | 0 mm | - | - | - |
| 1787852492 | 18.89° C | 75% | 1017.9 hPa | 0 mm | - | - | - |
| 1787851887 | 18.89° C | 75% | 1017.9 hPa | 0 mm | - | - | - |
| 1787851304 | 18.89° C | 75% | 1017.8 hPa | 0 mm | - | - | - |
| 1787850686 | 18.89° C | 74% | 1017.8 hPa | 0 mm | - | - | - |
| 1787850103 | 18.89° C | 74% | 1017.7 hPa | 0 mm | - | - | - |
| 1787849496 | 18.89° C | 75% | 1017.6 hPa | 0 mm | - | - | - |
| 1787848893 | 18.89° C | 77% | 1017.6 hPa | 0 mm | - | - | - |
| 1787848295 | 18.33° C | 78% | 1017.5 hPa | 0 mm | - | - | - |
| 1787847690 | 18.33° C | 80% | 1017.5 hPa | 0 mm | - | - | - |
| 1787847090 | 17.78° C | 82% | 1017.5 hPa | 0 mm | - | - | - |
| 1787846505 | 17.22° C | 84% | 1017.5 hPa | 0 mm | - | - | - |
| 1787845900 | 17.22° C | 84% | 1017.4 hPa | 0 mm | - | - | - |
| 1787845301 | 16.67° C | 87% | 1017.4 hPa | 0 mm | - | - | - |
| 1787844702 | 16.11° C | 87% | 1017.3 hPa | 0 mm | - | - | - |
| 1787844097 | 16.11° C | 87% | 1017.3 hPa | 0 mm | - | - | - |
| 1787843502 | 16.11° C | 88% | 1017.3 hPa | 0 mm | - | - | - |
* Rain latest hour (hover to see other rain measurements)
** Current wind speed in m/s (hover to see current wind gust speed)